Time;durP1;ratioP1;P1;durP2;ratioP2;P2;SDS_P1;SDS_P2;PMS_P1;PMS_P2;Temp;Humidity;BMP_temperature;BMP_pressure;BME280_temperature;BME280_humidity;BME280_pressure;Samples;Min_cycle;Max_cycle;Signal;HPM_P1;HPM_P2
2023/11/13 00:02:03;;;;;;;15.82;6.00;;;4.10;99.90;;;;;;4975807;28;20031;-62
2023/11/13 00:04:29;;;;;;;19.20;6.47;;;4.20;99.90;;;;;;4984509;28;20035;-62
2023/11/13 00:06:54;;;;;;;14.57;6.72;;;4.20;99.90;;;;;;4984149;28;20033;-62
2023/11/13 00:09:20;;;;;;;20.05;6.45;;;4.10;99.90;;;;;;4979396;28;20051;-62
2023/11/13 00:11:46;;;;;;;17.60;6.57;;;4.00;99.90;;;;;;4982637;28;20085;-62
2023/11/13 00:14:14;;;;;;;19.13;6.50;;;3.90;99.90;;;;;;4979315;28;20732;-62
2023/11/13 00:16:40;;;;;;;16.70;7.38;;;3.70;99.90;;;;;;4982060;28;20035;-62
2023/11/13 00:19:05;;;;;;;20.10;7.28;;;3.50;99.90;;;;;;4979956;28;20027;-62
2023/11/13 00:21:33;;;;;;;22.73;7.85;;;3.30;99.90;;;;;;4982982;28;20038;-62
2023/11/13 00:24:03;;;;;;;20.50;7.53;;;3.10;99.90;;;;;;4979202;28;20034;-62
2023/11/13 00:26:29;;;;;;;;;;;2.90;99.90;;;;;;4981848;28;20026;-62
2023/11/13 00:28:55;;;;;;;20.42;6.88;;;2.80;99.90;;;;;;4979048;28;20368;-62
2023/11/13 00:31:21;;;;;;;19.73;7.07;;;2.70;99.90;;;;;;4982252;28;20038;-62
2023/11/13 00:33:48;;;;;;;15.73;7.93;;;2.70;99.90;;;;;;4976229;28;20496;-62
2023/11/13 00:36:14;;;;;;;20.55;7.85;;;2.60;99.90;;;;;;4981522;28;20037;-62
2023/11/13 00:38:40;;;;;;;19.65;7.57;;;2.50;99.90;;;;;;4980835;28;20043;-62
2023/11/13 00:41:10;;;;;;;19.60;7.90;;;2.50;99.90;;;;;;4975686;28;20057;-62
2023/11/13 00:43:35;;;;;;;17.85;6.78;;;2.60;99.90;;;;;;4976528;28;20101;-62
2023/11/13 00:46:02;;;;;;;24.73;7.50;;;2.50;99.90;;;;;;4978866;28;20625;-62
2023/11/13 00:48:28;;;;;;;17.42;6.65;;;2.60;99.90;;;;;;4975769;28;20118;-62
2023/11/13 00:50:53;;;;;;;22.40;8.52;;;2.70;99.90;;;;;;4980766;28;20098;-62
2023/11/13 00:53:19;;;;;;;19.35;7.57;;;2.70;99.90;;;;;;4976932;28;20033;-62
2023/11/13 00:55:44;;;;;;;18.73;7.10;;;2.70;99.90;;;;;;4974902;28;20360;-62
2023/11/13 00:58:10;;;;;;;19.67;7.45;;;2.70;99.90;;;;;;4943192;28;20503;-62
2023/11/13 01:00:35;;;;;;;20.98;7.82;;;2.70;99.90;;;;;;4977296;28;20463;-62
2023/11/13 01:03:01;;;;;;;16.25;7.63;;;2.70;99.90;;;;;;4976627;28;20019;-62
2023/11/13 01:05:27;;;;;;;17.25;7.55;;;2.70;99.90;;;;;;4974601;28;20039;-62
2023/11/13 01:07:53;;;;;;;18.02;7.22;;;2.80;99.90;;;;;;4973325;28;20039;-62
2023/11/13 01:10:19;;;;;;;19.10;7.55;;;2.80;99.90;;;;;;4974486;28;20648;-62
2023/11/13 01:12:45;;;;;;;18.58;6.88;;;2.80;99.90;;;;;;4979182;28;20459;-62
2023/11/13 01:15:12;;;;;;;14.15;6.70;;;2.90;99.90;;;;;;4974657;28;20265;-62
2023/11/13 01:17:37;;;;;;;17.48;7.55;;;2.80;99.90;;;;;;4978166;28;20331;-62
2023/11/13 01:20:05;;;;;;;16.55;7.05;;;2.80;99.90;;;;;;4975981;28;20023;-62
2023/11/13 01:22:32;;;;;;;19.42;7.03;;;2.70;99.90;;;;;;4978402;28;20104;-62
2023/11/13 01:24:57;;;;;;;17.58;7.78;;;2.70;99.90;;;;;;4974853;28;20023;-62
2023/11/13 01:27:23;;;;;;;22.33;8.05;;;2.70;99.90;;;;;;4975881;28;20037;-62
2023/11/13 01:29:49;;;;;;;18.08;6.93;;;2.70;99.90;;;;;;4975166;28;20158;-62
2023/11/13 01:32:14;;;;;;;15.13;6.95;;;2.90;99.90;;;;;;4973675;28;20033;-62
2023/11/13 01:34:40;;;;;;;13.73;6.53;;;3.00;99.90;;;;;;4980715;28;20850;-62
2023/11/13 01:37:06;;;;;;;16.98;6.15;;;3.10;99.90;;;;;;4979350;28;20019;-62
2023/11/13 01:39:32;;;;;;;17.63;7.20;;;3.20;99.90;;;;;;4982279;28;20034;-62
2023/11/13 01:41:58;;;;;;;14.27;5.82;;;3.30;99.90;;;;;;4981884;28;20399;-62
2023/11/13 01:44:24;;;;;;;13.32;5.85;;;3.40;99.90;;;;;;4979019;28;20081;-62
2023/11/13 01:46:53;;;;;;;16.02;6.28;;;3.50;99.90;;;;;;4978507;28;20035;-62
2023/11/13 01:49:20;;;;;;;14.68;5.80;;;3.60;99.90;;;;;;4978146;28;20035;-62
2023/11/13 01:51:48;;;;;;;13.65;5.82;;;3.60;99.90;;;;;;4981542;28;20036;-62
2023/11/13 01:54:17;;;;;;;14.57;6.10;;;3.70;99.90;;;;;;4978843;28;20027;-62
2023/11/13 01:56:43;;;;;;;14.63;6.05;;;3.80;99.90;;;;;;4978578;28;20106;-62
2023/11/13 01:59:12;;;;;;;15.95;5.45;;;3.80;99.90;;;;;;4975320;28;20031;-62
2023/11/13 02:01:40;;;;;;;15.43;5.55;;;3.90;99.90;;;;;;4981367;28;20113;-62
2023/11/13 02:04:06;;;;;;;11.90;5.00;;;3.90;99.90;;;;;;4981422;28;20433;-62
2023/11/13 02:06:31;;;;;;;14.32;5.13;;;3.90;99.90;;;;;;4979823;28;20121;-62
2023/11/13 02:08:57;;;;;;;15.25;5.80;;;3.90;99.90;;;;;;4978345;28;20142;-61
2023/11/13 02:11:25;;;;;;;14.95;5.30;;;3.90;99.90;;;;;;4980354;28;20097;-61
2023/11/13 02:13:52;;;;;;;14.95;6.03;;;4.00;99.90;;;;;;4976599;28;20042;-61
2023/11/13 02:16:18;;;;;;;13.52;5.32;;;4.00;99.90;;;;;;4975351;28;20027;-61
2023/11/13 02:18:43;;;;;;;12.45;4.90;;;4.00;99.90;;;;;;4978559;28;20033;-61
2023/11/13 02:21:09;;;;;;;14.88;6.28;;;4.10;99.90;;;;;;4980058;28;20553;-62
2023/11/13 02:23:35;;;;;;;13.70;5.53;;;4.00;99.90;;;;;;4977577;28;20023;-62
2023/11/13 02:26:15;;;;;;;12.95;5.05;;;4.00;99.90;;;;;;4980763;28;20041;-62
2023/11/13 02:28:42;;;;;;;15.30;5.60;;;3.90;99.90;;;;;;4975428;28;20501;-61
2023/11/13 02:31:10;;;;;;;14.20;5.45;;;3.90;99.90;;;;;;4977945;28;20034;-61
2023/11/13 02:33:36;;;;;;;12.32;6.10;;;3.90;99.90;;;;;;4977967;28;20062;-60
2023/11/13 02:36:02;;;;;;;12.95;5.70;;;3.80;99.90;;;;;;4980877;28;20525;-61
2023/11/13 02:38:28;;;;;;;12.98;5.35;;;3.80;99.90;;;;;;4978734;28;20026;-61
2023/11/13 02:40:54;;;;;;;16.33;6.45;;;3.80;99.90;;;;;;4979037;28;20054;-61
2023/11/13 02:43:19;;;;;;;12.48;6.05;;;3.80;99.90;;;;;;4979910;28;20038;-61
2023/11/13 02:45:45;;;;;;;16.63;6.57;;;3.80;99.90;;;;;;4976182;28;20106;-63
2023/11/13 02:48:11;;;;;;;13.70;6.05;;;3.80;99.90;;;;;;4980694;28;20355;-62
2023/11/13 02:50:36;;;;;;;14.73;6.07;;;3.70;99.90;;;;;;4977292;28;20035;-62
2023/11/13 02:53:02;;;;;;;14.65;6.28;;;3.70;99.90;;;;;;4979642;28;20022;-62
2023/11/13 02:55:28;;;;;;;13.77;6.63;;;3.70;99.90;;;;;;4979270;28;20110;-61
2023/11/13 02:57:54;;;;;;;15.98;6.70;;;3.70;99.90;;;;;;4976855;28;20019;-61
2023/11/13 03:00:20;;;;;;;13.95;6.22;;;3.70;99.90;;;;;;4979193;28;20038;-61
2023/11/13 03:02:49;;;;;;;14.30;6.10;;;3.60;99.90;;;;;;4976752;28;20027;-61
2023/11/13 03:05:16;;;;;;;14.00;5.93;;;3.50;99.90;;;;;;4980175;28;20138;-61
2023/11/13 03:07:43;;;;;;;14.15;6.32;;;3.50;99.90;;;;;;4978503;28;20081;-61
2023/11/13 03:10:09;;;;;;;16.65;5.90;;;3.40;99.90;;;;;;4977780;28;20129;-61
2023/11/13 03:12:39;;;;;;;14.30;6.28;;;3.40;99.90;;;;;;4977561;28;20105;-61
2023/11/13 03:15:05;;;;;;;11.82;5.32;;;3.40;99.90;;;;;;4979750;28;20047;-61
2023/11/13 03:17:31;;;;;;;14.60;6.10;;;3.40;99.90;;;;;;4978944;28;20050;-63
2023/11/13 03:19:57;;;;;;;15.57;5.97;;;3.50;99.90;;;;;;4978116;28;20038;-63
2023/11/13 03:22:23;;;;;;;16.67;6.47;;;3.50;99.90;;;;;;4980081;28;20031;-63
2023/11/13 03:24:48;;;;;;;12.18;5.53;;;3.50;99.90;;;;;;4981360;28;20558;-63
2023/11/13 03:27:14;;;;;;;15.25;5.63;;;3.60;99.90;;;;;;4981501;28;20027;-63
2023/11/13 03:29:40;;;;;;;16.58;6.00;;;3.70;99.90;;;;;;4983064;28;20037;-63
2023/11/13 03:32:06;;;;;;;12.48;6.00;;;3.80;99.90;;;;;;4981030;28;20043;-63
2023/11/13 03:34:32;;;;;;;14.30;5.63;;;3.80;99.90;;;;;;4979684;28;20035;-63
2023/11/13 03:36:57;;;;;;;13.75;5.45;;;3.90;99.90;;;;;;4980126;28;20096;-63
2023/11/13 03:39:23;;;;;;;12.82;6.28;;;4.00;99.90;;;;;;4983381;28;20023;-63
2023/11/13 03:41:48;;;;;;;12.93;5.15;;;4.10;99.90;;;;;;4980010;28;20077;-63
2023/11/13 03:44:14;;;;;;;15.60;5.45;;;4.10;99.90;;;;;;4982324;28;20037;-63
2023/11/13 03:46:40;;;;;;;13.82;5.50;;;4.10;99.90;;;;;;4982373;28;20481;-63
2023/11/13 03:49:08;;;;;;;13.05;5.68;;;4.20;99.90;;;;;;4980119;28;20033;-63
2023/11/13 03:51:34;;;;;;;11.43;5.20;;;4.20;99.90;;;;;;4983040;28;20018;-63
2023/11/13 03:54:00;;;;;;;13.32;5.38;;;4.30;99.90;;;;;;4979731;28;20034;-63
2023/11/13 03:56:25;;;;;;;12.77;5.07;;;4.30;99.90;;;;;;4980075;28;20050;-63
2023/11/13 03:58:52;;;;;;;12.75;5.25;;;4.40;99.90;;;;;;4980116;28;20026;-63
2023/11/13 04:01:19;;;;;;;11.48;4.93;;;4.40;99.90;;;;;;4981924;28;20367;-63
2023/11/13 04:03:45;;;;;;;12.75;5.38;;;4.50;99.90;;;;;;4975881;28;20566;-63
2023/11/13 04:06:10;;;;;;;13.20;5.03;;;4.50;99.90;;;;;;4976398;28;20114;-63
2023/11/13 04:08:36;;;;;;;13.38;5.63;;;4.60;99.90;;;;;;4982134;28;20133;-63
2023/11/13 04:11:04;;;;;;;14.00;5.63;;;4.50;99.90;;;;;;4981478;28;20035;-63
2023/11/13 04:13:34;;;;;;;12.85;5.35;;;4.60;99.90;;;;;;4983013;28;20026;-63
2023/11/13 04:16:04;;;;;;;11.57;5.30;;;4.60;99.90;;;;;;4980054;28;20069;-63
2023/11/13 04:18:33;;;;;;;14.55;5.43;;;4.70;99.90;;;;;;4980834;28;20077;-63
2023/11/13 04:20:59;;;;;;;15.00;5.85;;;4.70;99.90;;;;;;4982144;28;20038;-63
2023/11/13 04:23:26;;;;;;;16.45;5.75;;;4.80;99.90;;;;;;4978696;28;20027;-63
2023/11/13 04:25:51;;;;;;;15.63;6.63;;;4.80;99.90;;;;;;4982831;28;20027;-63
2023/11/13 04:28:18;;;;;;;14.23;6.00;;;4.80;99.90;;;;;;4978444;28;20037;-62
2023/11/13 04:30:44;;;;;;;17.98;7.07;;;4.90;99.90;;;;;;4983833;28;20038;-63
2023/11/13 04:33:10;;;;;;;15.63;6.65;;;4.90;99.90;;;;;;4981192;28;20160;-63
2023/11/13 04:35:35;;;;;;;17.30;6.32;;;5.00;99.90;;;;;;4981814;28;20310;-62
2023/11/13 04:38:01;;;;;;;13.38;6.38;;;4.90;99.90;;;;;;4975337;28;20077;-62
2023/11/13 04:40:27;;;;;;;16.23;6.72;;;5.00;99.90;;;;;;4982290;28;20023;-62
2023/11/13 04:42:53;;;;;;;12.73;5.85;;;5.00;99.90;;;;;;4980408;28;20041;-62
2023/11/13 04:45:21;;;;;;;17.27;6.53;;;5.10;99.90;;;;;;4981118;28;20026;-62
2023/11/13 04:47:49;;;;;;;13.68;6.13;;;5.20;99.90;;;;;;4981860;28;20136;-62
2023/11/13 04:50:14;;;;;;;15.68;5.70;;;5.30;99.90;;;;;;4979120;28;20026;-63
2023/11/13 04:52:42;;;;;;;17.63;6.07;;;5.30;99.90;;;;;;4984526;28;20044;-62
2023/11/13 04:55:10;;;;;;;13.60;6.30;;;5.40;99.90;;;;;;4982165;28;20030;-63
2023/11/13 04:57:36;;;;;;;14.40;6.22;;;5.40;99.90;;;;;;4976310;28;20331;-62
2023/11/13 05:00:05;;;;;;;12.88;5.78;;;5.40;99.90;;;;;;4983634;28;20497;-62
2023/11/13 05:02:30;;;;;;;16.58;5.68;;;5.40;99.90;;;;;;4972817;28;20027;-62
2023/11/13 05:04:56;;;;;;;15.65;6.85;;;5.50;99.90;;;;;;4981992;28;20037;-64
2023/11/13 05:07:22;;;;;;;15.50;6.18;;;5.50;99.90;;;;;;4973296;28;20039;-63
2023/11/13 05:09:48;;;;;;;12.75;5.43;;;5.50;99.90;;;;;;4980074;28;20162;-63
2023/11/13 05:12:15;;;;;;;16.10;5.65;;;5.60;99.90;;;;;;4976607;28;20109;-63
2023/11/13 05:14:41;;;;;;;13.05;5.63;;;5.70;99.90;;;;;;4976289;28;20050;-63
2023/11/13 05:17:07;;;;;;;12.52;5.63;;;5.70;99.90;;;;;;4973488;28;20545;-63
2023/11/13 05:19:33;;;;;;;14.45;5.97;;;5.80;99.90;;;;;;4977440;28;20501;-63
2023/11/13 05:21:58;;;;;;;16.13;5.90;;;5.80;99.90;;;;;;4974476;28;20019;-63
2023/11/13 05:24:25;;;;;;;16.23;6.82;;;5.80;99.90;;;;;;4971427;28;20065;-63
2023/11/13 05:26:52;;;;;;;13.15;6.07;;;5.90;99.90;;;;;;4971037;28;20031;-63
2023/11/13 05:29:18;;;;;;;16.08;5.95;;;5.90;99.90;;;;;;4969827;28;20022;-63
2023/11/13 05:31:43;;;;;;;14.23;5.93;;;6.00;99.90;;;;;;4977727;28;20041;-63
2023/11/13 05:34:09;;;;;;;13.85;6.13;;;6.00;99.90;;;;;;4978030;28;20497;-63
2023/11/13 05:36:35;;;;;;;19.60;6.28;;;6.00;99.90;;;;;;4979117;28;20049;-63
2023/11/13 05:39:03;;;;;;;13.35;5.70;;;6.00;99.90;;;;;;4978490;28;20407;-62
2023/11/13 05:41:28;;;;;;;11.52;5.10;;;6.00;99.90;;;;;;4977604;28;20436;-62
2023/11/13 05:43:55;;;;;;;12.43;4.45;;;6.10;99.90;;;;;;4967813;28;20057;-62
2023/11/13 05:46:21;;;;;;;10.88;4.43;;;6.10;99.90;;;;;;4976596;28;20102;-63
2023/11/13 05:48:47;;;;;;;10.93;4.32;;;6.20;99.90;;;;;;4977901;28;20038;-62
2023/11/13 05:51:18;;;;;;;12.65;4.95;;;6.30;99.90;;;;;;4978297;28;20389;-62
2023/11/13 05:53:43;;;;;;;12.63;3.95;;;6.30;99.90;;;;;;4976193;28;20027;-62
2023/11/13 05:56:10;;;;;;;10.07;4.18;;;6.30;99.90;;;;;;4975993;28;20026;-62
2023/11/13 05:58:35;;;;;;;10.85;4.03;;;6.40;99.90;;;;;;4976568;28;20030;-62
2023/11/13 06:01:02;;;;;;;8.65;3.63;;;6.40;99.90;;;;;;4976748;28;20391;-62
2023/11/13 06:03:27;;;;;;;8.45;3.25;;;6.40;99.90;;;;;;4977556;28;20674;-62
2023/11/13 06:05:53;;;;;;;8.70;3.95;;;6.50;99.90;;;;;;4973570;28;20137;-62
2023/11/13 06:08:19;;;;;;;8.68;3.45;;;6.50;99.90;;;;;;4977251;28;20085;-62
2023/11/13 06:10:44;;;;;;;9.85;3.58;;;6.50;99.90;;;;;;4971440;28;20049;-62
2023/11/13 06:13:12;;;;;;;8.20;3.38;;;6.60;99.90;;;;;;4951881;28;20046;-62
2023/11/13 06:15:40;;;;;;;8.10;3.40;;;6.60;99.90;;;;;;4975665;28;20042;-61
2023/11/13 06:18:06;;;;;;;7.38;2.88;;;6.60;99.90;;;;;;4976309;28;20695;-62
2023/11/13 06:20:33;;;;;;;7.13;2.60;;;6.70;99.90;;;;;;4979840;28;20962;-62
2023/11/13 06:23:00;;;;;;;10.40;3.40;;;6.70;99.90;;;;;;4978979;28;20022;-62
2023/11/13 06:25:25;;;;;;;7.90;3.08;;;6.70;99.90;;;;;;4974639;28;20026;-62
2023/11/13 06:27:52;;;;;;;8.75;3.50;;;6.70;99.90;;;;;;4977255;28;20030;-62
2023/11/13 06:30:18;;;;;;;8.05;3.30;;;6.70;99.90;;;;;;4979360;28;20047;-62
2023/11/13 06:32:47;;;;;;;6.90;2.80;;;6.80;99.90;;;;;;4976193;28;20034;-62
2023/11/13 06:35:14;;;;;;;8.75;3.35;;;6.80;99.90;;;;;;4974422;28;20478;-63
2023/11/13 06:37:41;;;;;;;10.57;3.53;;;6.80;99.90;;;;;;4978646;28;20125;-62
2023/11/13 06:40:07;;;;;;;10.68;3.55;;;6.80;99.90;;;;;;4975978;28;20049;-62
2023/11/13 06:42:33;;;;;;;8.93;3.75;;;6.80;99.90;;;;;;4949357;28;20027;-63
2023/11/13 06:44:59;;;;;;;8.95;3.20;;;6.90;99.90;;;;;;4972422;28;20039;-63
2023/11/13 06:47:25;;;;;;;10.15;3.67;;;6.80;99.90;;;;;;4977636;28;20066;-65
2023/11/13 06:49:50;;;;;;;8.90;3.30;;;6.90;99.90;;;;;;4977468;28;20493;-65
2023/11/13 06:52:16;;;;;;;8.82;3.42;;;6.80;99.90;;;;;;4974660;28;20482;-65
2023/11/13 06:54:42;;;;;;;7.80;3.35;;;6.80;99.90;;;;;;4975195;28;20478;-65
2023/11/13 06:57:07;;;;;;;11.05;3.45;;;6.80;99.90;;;;;;4973363;28;20478;-64
2023/11/13 06:59:33;;;;;;;11.07;3.97;;;6.80;99.90;;;;;;4946782;28;20015;-64
2023/11/13 07:02:01;;;;;;;8.65;3.47;;;6.80;99.90;;;;;;4978881;28;20042;-64
2023/11/13 07:04:26;;;;;;;10.55;3.40;;;6.90;99.90;;;;;;4974973;28;20035;-64
2023/11/13 07:06:52;;;;;;;10.00;4.28;;;6.90;99.90;;;;;;4981985;28;20048;-64
2023/11/13 07:09:20;;;;;;;11.70;4.43;;;6.90;99.90;;;;;;4975657;28;20035;-64
2023/11/13 07:11:47;;;;;;;12.43;4.65;;;7.00;99.90;;;;;;4970572;28;20554;-64
2023/11/13 07:14:15;;;;;;;15.85;4.70;;;7.00;99.90;;;;;;4982807;28;20037;-64
2023/11/13 07:16:41;;;;;;;15.88;5.47;;;7.00;99.90;;;;;;4974794;28;20069;-64
2023/11/13 07:19:07;;;;;;;10.63;4.47;;;7.00;99.90;;;;;;4973592;28;20684;-64
2023/11/13 07:21:33;;;;;;;14.05;5.20;;;7.10;99.90;;;;;;4978590;28;20033;-64
2023/11/13 07:23:59;;;;;;;14.02;5.22;;;7.10;99.90;;;;;;4977243;28;20069;-64
2023/11/13 07:26:28;;;;;;;11.60;5.03;;;7.20;99.90;;;;;;4981483;28;20037;-64
2023/11/13 07:28:54;;;;;;;14.35;5.22;;;7.20;99.90;;;;;;4946486;28;20069;-64
2023/11/13 07:31:20;;;;;;;11.85;5.25;;;7.30;99.90;;;;;;4979819;28;20034;-64
2023/11/13 07:33:46;;;;;;;11.75;4.68;;;7.30;99.90;;;;;;4982569;28;20022;-64
2023/11/13 07:36:12;;;;;;;15.85;5.65;;;7.40;99.90;;;;;;4971940;28;20023;-64
2023/11/13 07:38:41;;;;;;;15.25;4.75;;;7.40;99.90;;;;;;4981604;28;20034;-64
2023/11/13 07:41:13;;;;;;;13.27;5.38;;;7.40;99.90;;;;;;4980397;28;20031;-64
2023/11/13 07:43:40;;;;;;;16.35;6.00;;;7.40;99.90;;;;;;4975808;28;20042;-64
2023/11/13 07:46:08;;;;;;;19.35;7.15;;;7.50;99.90;;;;;;4977954;28;20030;-64
2023/11/13 07:48:35;;;;;;;17.35;6.55;;;7.60;99.90;;;;;;4978985;28;20486;-64
2023/11/13 07:51:04;;;;;;;17.27;6.75;;;7.60;99.90;;;;;;4976259;28;20039;-64
2023/11/13 07:53:30;;;;;;;19.63;5.82;;;7.60;99.90;;;;;;4968764;28;20053;-64
2023/11/13 07:55:56;;;;;;;16.10;6.82;;;7.70;99.90;;;;;;4974807;28;20110;-64
2023/11/13 07:58:23;;;;;;;16.27;6.32;;;7.80;99.90;;;;;;4979606;28;20505;-63
2023/11/13 08:00:52;;;;;;;22.75;6.57;;;7.90;99.90;;;;;;4978576;28;20054;-63
2023/11/13 08:03:22;;;;;;;17.90;6.07;;;7.90;99.90;;;;;;4981461;28;20516;-63
2023/11/13 08:05:49;;;;;;;25.63;6.80;;;8.00;99.90;;;;;;4963735;28;20078;-64
2023/11/13 08:08:16;;;;;;;15.18;5.82;;;8.00;99.90;;;;;;4980694;28;20548;-64
2023/11/13 08:10:46;;;;;;;17.20;5.88;;;8.10;99.90;;;;;;4978352;28;20165;-64
2023/11/13 08:13:13;;;;;;;16.65;5.72;;;8.10;99.90;;;;;;4981964;28;20042;-64
2023/11/13 08:15:39;;;;;;;17.05;6.45;;;8.20;99.90;;;;;;4978550;28;20034;-64
2023/11/13 08:18:04;;;;;;;18.58;6.57;;;8.20;99.90;;;;;;4980112;28;20046;-64
2023/11/13 08:20:30;;;;;;;16.45;7.25;;;8.20;99.90;;;;;;4974867;28;20114;-64
2023/11/13 08:22:59;;;;;;;17.67;6.90;;;8.20;99.90;;;;;;4980946;28;20093;-64
2023/11/13 08:25:26;;;;;;;15.70;6.63;;;8.20;99.90;;;;;;4981038;28;20465;-64
2023/11/13 08:27:52;;;;;;;16.70;6.43;;;8.30;99.90;;;;;;4976688;28;20352;-64
2023/11/13 08:30:22;;;;;;;17.73;6.28;;;8.20;99.90;;;;;;4981263;28;20029;-64
2023/11/13 08:32:54;;;;;;;15.05;5.70;;;8.30;99.90;;;;;;4979171;28;20355;-64
2023/11/13 08:35:20;;;;;;;12.65;5.45;;;8.30;99.90;;;;;;4979327;28;20282;-64
2023/11/13 08:37:46;;;;;;;14.43;5.20;;;8.40;99.90;;;;;;4978926;28;20527;-64
2023/11/13 08:40:23;;;;;;;16.27;4.95;;;8.40;99.90;;;;;;4977431;28;20031;-64
2023/11/13 08:42:51;;;;;;;12.02;4.50;;;8.50;99.90;;;;;;4978397;28;20061;-64
2023/11/13 08:45:17;;;;;;;13.52;4.55;;;8.50;99.90;;;;;;4974795;28;20034;-64
2023/11/13 08:47:49;;;;;;;11.50;4.05;;;8.60;99.90;;;;;;4975367;28;20041;-64
2023/11/13 08:50:16;;;;;;;10.02;4.43;;;8.60;99.90;;;;;;4980891;28;20100;-64
2023/11/13 08:52:45;;;;;;;13.63;4.63;;;8.70;99.90;;;;;;4977639;28;20038;-64
2023/11/13 08:55:12;;;;;;;11.98;4.50;;;8.70;99.90;;;;;;4974923;28;20109;-64
2023/11/13 08:57:42;;;;;;;12.18;3.90;;;8.70;99.90;;;;;;4978381;28;20058;-64
2023/11/13 09:00:19;;;;;;;13.17;2.83;;;8.70;99.90;;;;;;4978773;28;20062;-64
2023/11/13 09:02:48;;;;;;;10.77;3.72;;;8.70;99.90;;;;;;4976804;28;20486;-64
2023/11/13 09:05:15;;;;;;;11.13;4.17;;;8.70;99.90;;;;;;4981037;28;20031;-64
2023/11/13 09:07:41;;;;;;;7.80;2.53;;;8.70;99.90;;;;;;4976350;28;20498;-64
2023/11/13 09:10:10;;;;;;;9.82;2.75;;;8.80;99.90;;;;;;4972383;28;20388;-63
2023/11/13 09:12:43;;;;;;;12.63;3.67;;;8.80;99.90;;;;;;4975627;28;20138;-64
2023/11/13 09:15:11;;;;;;;8.38;3.25;;;8.80;99.90;;;;;;4976242;28;20397;-64
2023/11/13 09:17:48;;;;;;;10.25;3.38;;;8.80;99.90;;;;;;4946157;28;20126;-63
2023/11/13 09:20:19;;;;;;;7.32;2.90;;;8.90;99.90;;;;;;4963729;28;20022;-63
2023/11/13 09:22:50;;;;;;;9.10;3.05;;;8.80;99.90;;;;;;4972786;28;20117;-63
2023/11/13 09:25:16;;;;;;;8.88;3.20;;;8.80;99.90;;;;;;4975713;28;20030;-63
2023/11/13 09:27:41;;;;;;;8.85;3.30;;;8.80;99.90;;;;;;4978267;28;20044;-63
2023/11/13 09:30:10;;;;;;;7.05;2.78;;;8.70;99.90;;;;;;4977647;28;20030;-64
2023/11/13 09:32:36;;;;;;;7.80;2.33;;;8.70;99.90;;;;;;4966505;28;20026;-64
2023/11/13 09:35:05;;;;;;;10.32;2.92;;;8.80;99.90;;;;;;4976295;28;20037;-64
2023/11/13 09:37:31;;;;;;;7.82;2.60;;;8.70;99.90;;;;;;4975589;28;20022;-64
2023/11/13 09:39:58;;;;;;;14.40;2.35;;;8.80;99.90;;;;;;4976782;28;20030;-63
2023/11/13 09:42:27;;;;;;;7.65;2.20;;;8.80;99.90;;;;;;4973864;28;20108;-63
2023/11/13 09:44:56;;;;;;;6.38;2.20;;;8.80;99.90;;;;;;4977810;28;20026;-63
2023/11/13 09:47:28;;;;;;;11.55;2.15;;;8.80;99.90;;;;;;4975561;28;20149;-63
2023/11/13 09:50:03;;;;;;;4.07;1.45;;;8.80;99.90;;;;;;4977772;28;20023;-64
2023/11/13 09:52:31;;;;;;;7.60;2.67;;;8.80;99.90;;;;;;4973605;28;20054;-64
2023/11/13 09:54:56;;;;;;;10.65;2.50;;;8.80;99.90;;;;;;4973948;28;20030;-64
2023/11/13 09:57:23;;;;;;;6.57;2.53;;;8.80;99.90;;;;;;4975293;28;20113;-64
2023/11/13 09:59:51;;;;;;;10.13;3.22;;;8.80;99.90;;;;;;4977949;28;20026;-64
2023/11/13 10:02:20;;;;;;;9.10;2.90;;;8.80;99.90;;;;;;4975143;28;20101;-64
2023/11/13 10:04:46;;;;;;;8.43;3.03;;;8.80;99.90;;;;;;4980095;28;20114;-64
2023/11/13 10:07:16;;;;;;;7.40;3.10;;;8.80;99.90;;;;;;4970023;28;20112;-63
2023/11/13 10:09:41;;;;;;;9.52;3.35;;;8.80;99.90;;;;;;4968540;28;20190;-63
2023/11/13 10:12:09;;;;;;;11.27;3.00;;;8.80;99.90;;;;;;4969965;28;20134;-64
2023/11/13 10:14:35;;;;;;;10.65;3.03;;;8.90;99.90;;;;;;4965184;28;20038;-64
2023/11/13 10:17:01;;;;;;;7.20;2.20;;;8.90;99.90;;;;;;4966103;28;20069;-63
2023/11/13 10:19:27;;;;;;;6.55;2.40;;;8.90;99.90;;;;;;4962536;28;20030;-64
2023/11/13 10:21:55;;;;;;;10.02;3.63;;;8.90;99.90;;;;;;4972109;28;20043;-65
2023/11/13 10:24:23;;;;;;;7.28;2.17;;;8.90;99.90;;;;;;4978119;28;20038;-65
2023/11/13 10:26:54;;;;;;;5.72;2.35;;;8.90;99.90;;;;;;4972579;28;20051;-65
2023/11/13 10:29:21;;;;;;;;;;;8.90;99.90;;;;;;4975527;28;20034;-65
2023/11/13 10:31:48;;;;;;;7.50;2.53;;;9.00;99.90;;;;;;4976626;28;19913;-65
2023/11/13 10:34:14;;;;;;;5.57;1.90;;;9.00;99.90;;;;;;4980319;28;20033;-65
2023/11/13 10:36:41;;;;;;;3.78;1.30;;;9.00;99.90;;;;;;4983094;28;20038;-64
2023/11/13 10:39:11;;;;;;;5.63;1.80;;;9.00;99.90;;;;;;4972189;28;20019;-64
2023/11/13 10:41:45;;;;;;;6.35;2.03;;;9.00;99.90;;;;;;4970330;28;20030;-65
2023/11/13 10:44:27;;;;;;;9.98;2.70;;;9.00;99.90;;;;;;4983291;28;20042;-65
2023/11/13 10:46:53;;;;;;;8.30;1.80;;;9.00;99.90;;;;;;4976241;28;20035;-65
2023/11/13 10:49:19;;;;;;;6.22;1.80;;;9.00;99.90;;;;;;4980300;28;20088;-65
2023/11/13 10:51:51;;;;;;;6.95;1.77;;;9.00;99.90;;;;;;4980096;28;20429;-65
2023/11/13 10:54:20;;;;;;;3.55;1.20;;;9.00;99.90;;;;;;4977384;28;20023;-65
2023/11/13 10:56:49;;;;;;;7.88;1.80;;;9.00;99.90;;;;;;4976471;28;20031;-65
2023/11/13 10:59:15;;;;;;;3.63;1.50;;;9.00;99.90;;;;;;4970102;28;20283;-66
2023/11/13 11:01:48;;;;;;;5.47;1.33;;;9.10;99.90;;;;;;4974709;28;20046;-65
2023/11/13 11:04:19;;;;;;;3.03;1.15;;;9.10;99.90;;;;;;4981556;28;20030;-64
2023/11/13 11:06:47;;;;;;;4.85;1.35;;;9.10;99.90;;;;;;4978606;28;21098;-64
2023/11/13 11:09:17;;;;;;;3.58;1.20;;;9.20;99.90;;;;;;4981359;28;20050;-65
2023/11/13 11:11:44;;;;;;;5.55;1.00;;;9.20;99.90;;;;;;4976074;28;20121;-65
2023/11/13 11:14:30;;;;;;;6.95;1.50;;;9.30;99.90;;;;;;4973701;28;20053;-65
2023/11/13 11:17:25;;;;;;;2.65;1.08;;;9.40;99.90;;;;;;4976267;28;20074;-65
2023/11/13 11:19:57;;;;;;;3.95;1.30;;;9.40;99.90;;;;;;4963134;28;20050;-65
2023/11/13 11:22:34;;;;;;;8.85;1.52;;;9.40;99.90;;;;;;4982052;28;20027;-65
2023/11/13 11:25:11;;;;;;;4.53;1.40;;;9.40;99.90;;;;;;4984489;28;20117;-65
2023/11/13 11:27:44;;;;;;;5.80;1.40;;;9.50;99.90;;;;;;4979042;28;20165;-64
2023/11/13 11:30:18;;;;;;;3.78;1.40;;;9.50;99.90;;;;;;4977513;28;20494;-63
2023/11/13 11:32:57;;;;;;;6.45;1.42;;;9.60;99.90;;;;;;4977156;28;20122;-63
2023/11/13 11:35:24;;;;;;;8.52;1.77;;;9.60;99.90;;;;;;4978355;28;20034;-64
2023/11/13 11:38:22;;;;;;;4.60;1.60;;;9.60;99.90;;;;;;4977068;28;20038;-64
2023/11/13 11:40:49;;;;;;;3.90;1.10;;;9.60;99.90;;;;;;4980493;28;20018;-64
2023/11/13 11:43:43;;;;;;;7.63;1.75;;;9.70;99.90;;;;;;4981738;28;20023;-64
2023/11/13 11:46:08;;;;;;;5.40;1.63;;;9.70;99.90;;;;;;4980014;28;20470;-64
2023/11/13 11:48:38;;;;;;;5.32;1.60;;;9.80;99.90;;;;;;4977935;28;20092;-64
2023/11/13 11:51:22;;;;;;;5.15;1.80;;;9.80;99.90;;;;;;4973269;28;20088;-64
2023/11/13 11:54:00;;;;;;;8.05;2.42;;;9.80;99.90;;;;;;4973540;28;20480;-64
2023/11/13 11:56:27;;;;;;;6.25;2.28;;;9.90;99.90;;;;;;4980483;28;20019;-64
2023/11/13 11:58:53;;;;;;;4.90;1.77;;;10.00;99.90;;;;;;4974843;28;20113;-64
2023/11/13 12:01:22;;;;;;;7.63;2.40;;;10.10;99.90;;;;;;4979329;28;20054;-64
2023/11/13 12:03:47;;;;;;;6.75;3.03;;;10.30;99.90;;;;;;4977709;28;20124;-64
2023/11/13 12:06:13;;;;;;;4.30;1.50;;;10.50;99.90;;;;;;4978258;28;20088;-64
2023/11/13 12:08:41;;;;;;;4.82;1.67;;;10.50;99.90;;;;;;4978750;28;20050;-64
2023/11/13 12:11:07;;;;;;;4.45;1.65;;;10.70;99.90;;;;;;4973346;28;20158;-64
2023/11/13 12:13:32;;;;;;;7.03;2.00;;;10.80;99.90;;;;;;4975553;28;20648;-64
2023/11/13 12:16:00;;;;;;;9.23;2.28;;;10.80;99.90;;;;;;4975857;28;20189;-64
2023/11/13 12:18:26;;;;;;;9.75;2.53;;;10.90;99.90;;;;;;4974523;28;20087;-64
2023/11/13 12:20:55;;;;;;;8.88;2.25;;;11.00;99.90;;;;;;4976604;28;20018;-64
2023/11/13 12:23:21;;;;;;;6.55;1.83;;;11.10;99.90;;;;;;4972914;28;20447;-64
2023/11/13 12:25:47;;;;;;;4.40;1.40;;;11.20;99.90;;;;;;4980414;28;20050;-63
2023/11/13 12:28:13;;;;;;;8.05;1.83;;;11.20;99.90;;;;;;4980022;28;20034;-63
2023/11/13 12:30:38;;;;;;;7.18;2.03;;;11.30;99.90;;;;;;4978837;28;20039;-64
2023/11/13 12:33:04;;;;;;;6.82;1.92;;;11.30;99.90;;;;;;4966501;28;20041;-64
2023/11/13 12:35:34;;;;;;;7.03;1.98;;;11.30;99.90;;;;;;4981330;28;20062;-64
2023/11/13 12:38:02;;;;;;;5.07;1.67;;;11.30;99.90;;;;;;4976573;28;20041;-64
2023/11/13 12:40:27;;;;;;;6.07;2.20;;;11.30;99.90;;;;;;4977808;28;20034;-64
2023/11/13 12:42:56;;;;;;;8.90;2.40;;;11.30;99.90;;;;;;4947015;28;20305;-66
2023/11/13 12:45:22;;;;;;;7.82;2.10;;;11.30;99.90;;;;;;4976687;28;20042;-65
2023/11/13 12:47:57;;;;;;;8.23;2.47;;;11.30;99.90;;;;;;4977615;28;20092;-64
2023/11/13 12:50:25;;;;;;;6.78;1.92;;;11.30;99.90;;;;;;4979123;28;20038;-64
2023/11/13 12:52:54;;;;;;;6.82;1.98;;;11.30;99.90;;;;;;4977577;28;20092;-64